NCRGNCAI

Guest
Details From NCRG - Rarotonga Intl
To NCAI - Aitutaki
Flight Number -
Tags generated
Created
Modified
Stats Distance 142 nm / 263 km
Max Altitude 9,800 ft / 2,987 m
Waypoints 3
Social Downloads 1
Likes 0
Share VATSIM

Download

Looking for another format? Having issues loading an existing format? Contact us
Advertisement - Login to hide

Notes

Basic altitude profile: - Ascent Rate: 2500ft/min - Ascent Speed: 250kts - Cruise Altitude: 35000ft - Cruise Speed: 420kts - Descent Rate: 1500ft/min - Descent Speed: 250kts Options: - Use NATs: yes - Use PACOTS: yes - Use low airways: yes - Use high airways: no

Route

NCRG DOTIK NCAI

ID Type Via Altitude Latitude Longitude Leg Dist Tot Dist Heading (true) Name
O NCRG APT - 0 ft / 0 m -21.20274˚ -159.80556˚ - 0 nm - Rarotonga Intl
DOTIK FIX - 9,800 ft / 2,987 m -19.60158˚ -159.78911˚ 96 nm 96 nm 1° / 1° -
O NCAI APT - 0 ft / 0 m -18.83708˚ -159.76103˚ 45 nm 142 nm 2° / 2° Aitutaki

Altitude Profile

Advertisement - Login to hide

NCRG

Details ICAO NCRG (RAR)
Name Rarotonga Intl
Region Cook Islands
Timezone Pacific/Rarotonga (UTC-10.0)
Stats Elevation 19 ft / 6 m (AMSL)
Location -21.202739° -159.805555°
Runways 1
Magnetic Variation 13.933° E

METAR

NCRG 110300Z 36007KT 9999 -SHRA SCT005 BKN010 BKN090 25/24 Q1007

Decode

TAF

TAF NCRG 102301Z 1100/1124 04006KT 9999 -SHRA FEW008 SCT016 BKN080 TEMPO 1100/1112 5000 TSRA BKN010 FEW014CB

Decode

Departure Runways

ID Width Length Bearing (true) Bearing (mag) Surface Threshold Offset Overrun Length
08 150 ft / 46 m 7,629 ft / 2,325 m 89.99° 76.06° Concrete 400 ft / 122 m 100 ft / 30 m
26 150 ft / 46 m 7,629 ft / 2,325 m 269.98° 256.05° Concrete 0 ft / 0 m 0 ft / 0 m

NCAI

Details ICAO NCAI (AIT)
Name Aitutaki
Region Cook Islands
Timezone Unknown (UTC+0.0)
Stats Elevation 20 ft / 6 m (AMSL)
Location -18.837078° -159.761026°
Runways 1
Magnetic Variation 13.144° E

METAR

NCAI 110200Z AUTO 34003KT //// ////// 26/26 Q1008.0

Decode

TAF

Not found

Destination Runways

ID Width Length Bearing (true) Bearing (mag) Surface Threshold Offset Overrun Length
14 102 ft / 31 m 6,008 ft / 1,831 m 154.20° 141.06° Asphalt 0 ft / 0 m 0 ft / 0 m
32 102 ft / 31 m 6,008 ft / 1,831 m 334.20° 321.06° Asphalt 0 ft / 0 m 0 ft / 0 m

Popular Alternatives